createdAt,value
2017-12-02T00:00:22.088Z,19.26
2017-12-02T00:01:31.004Z,19.21
2017-12-02T00:02:40.450Z,19.26
2017-12-02T00:03:49.100Z,19.33
2017-12-02T00:04:58.074Z,19.23
2017-12-02T00:06:06.691Z,19.31
2017-12-02T00:07:16.110Z,19.29
2017-12-02T00:08:25.339Z,19.22
2017-12-02T00:09:35.282Z,19.31
2017-12-02T00:10:44.438Z,19.28
2017-12-02T00:11:53.616Z,19.28
2017-12-02T00:13:02.562Z,19.31
2017-12-02T00:14:11.250Z,19.26
2017-12-02T00:15:20.418Z,19.25
2017-12-02T00:16:29.828Z,19.23
2017-12-02T00:17:38.489Z,19.22
2017-12-02T00:18:47.935Z,19.28
2017-12-02T00:19:56.575Z,19.25
2017-12-02T00:21:05.738Z,19.23
2017-12-02T00:22:15.246Z,19.26
2017-12-02T00:23:24.404Z,19.33
2017-12-02T00:24:33.052Z,19.32
2017-12-02T00:25:41.687Z,19.25
2017-12-02T00:26:50.891Z,19.25
2017-12-02T00:28:00.598Z,19.31
2017-12-02T00:29:09.766Z,19.29
2017-12-02T00:30:19.476Z,19.25
2017-12-02T00:31:28.145Z,19.25
2017-12-02T00:32:37.053Z,19.33
2017-12-02T00:33:46.222Z,19.23
2017-12-02T00:34:55.134Z,19.26
2017-12-02T00:36:04.302Z,19.25
2017-12-02T00:37:13.581Z,19.28
2017-12-02T00:38:22.763Z,19.29
2017-12-02T00:39:32.168Z,19.28
2017-12-02T00:40:41.353Z,19.32
2017-12-02T00:41:50.517Z,19.28
2017-12-02T00:42:59.669Z,19.28
2017-12-02T00:44:08.870Z,19.28
2017-12-02T00:45:18.573Z,19.28
2017-12-02T00:46:27.491Z,19.28
2017-12-02T00:47:36.432Z,19.28
2017-12-02T00:48:45.341Z,19.29
2017-12-02T00:49:53.982Z,19.26
2017-12-02T00:51:03.421Z,19.26
2017-12-02T00:52:12.336Z,19.26
2017-12-02T00:53:21.493Z,19.28
2017-12-02T00:54:30.644Z,19.29
2017-12-02T00:55:39.541Z,19.26
2017-12-02T00:56:48.999Z,19.22
2017-12-02T00:57:57.657Z,19.29
2017-12-02T00:59:07.075Z,19.25
2017-12-02T01:00:15.726Z,19.25
2017-12-02T01:01:24.641Z,19.33
2017-12-02T01:02:33.841Z,19.29
2017-12-02T01:03:43.043Z,19.25
2017-12-02T01:04:51.932Z,19.22
2017-12-02T01:06:01.366Z,19.28
2017-12-02T01:07:10.550Z,19.26
2017-12-02T01:08:19.198Z,19.21
2017-12-02T01:09:28.363Z,19.26
2017-12-02T01:10:37.267Z,19.26
2017-12-02T01:11:46.751Z,19.26
2017-12-02T01:12:55.931Z,19.25
2017-12-02T01:14:04.838Z,19.29
2017-12-02T01:15:13.764Z,19.28
2017-12-02T01:16:23.498Z,19.23
2017-12-02T01:17:32.458Z,19.28
2017-12-02T01:18:41.872Z,19.23
2017-12-02T01:19:51.045Z,19.31
2017-12-02T01:21:00.241Z,19.23
2017-12-02T01:22:09.397Z,19.26
2017-12-02T01:23:19.094Z,19.28
2017-12-02T01:24:28.264Z,19.25
2017-12-02T01:25:37.149Z,19.25
2017-12-02T01:26:45.830Z,19.32
2017-12-02T01:27:55.025Z,19.19
2017-12-02T01:29:04.183Z,19.26
2017-12-02T01:30:12.860Z,19.22
2017-12-02T01:31:21.755Z,19.29
2017-12-02T01:32:30.907Z,19.25
2017-12-02T01:33:40.348Z,19.26
2017-12-02T01:34:49.773Z,19.29
2017-12-02T01:35:58.687Z,19.31
2017-12-02T01:37:07.875Z,19.28
2017-12-02T01:38:17.028Z,19.22
2017-12-02T01:39:26.451Z,19.21
2017-12-02T01:40:35.860Z,19.23
2017-12-02T01:41:45.525Z,19.32
2017-12-02T01:42:54.676Z,19.31
2017-12-02T01:44:03.826Z,19.23
2017-12-02T01:45:13.272Z,19.21
2017-12-02T01:46:22.461Z,19.22
2017-12-02T01:47:31.110Z,19.26
2017-12-02T01:48:40.600Z,19.25
2017-12-02T01:49:49.527Z,19.21
2017-12-02T01:50:58.687Z,19.25
2017-12-02T01:52:07.841Z,19.22
2017-12-02T01:53:17.247Z,19.23
2017-12-02T01:54:25.900Z,19.25
2017-12-02T01:55:34.856Z,19.23
2017-12-02T01:56:44.016Z,19.26
2017-12-02T01:57:53.181Z,19.23
2017-12-02T01:59:02.639Z,19.28
2017-12-02T02:00:11.293Z,19.21
2017-12-02T02:01:20.216Z,19.21
2017-12-02T02:02:29.645Z,19.16
2017-12-02T02:03:38.575Z,19.28
2017-12-02T02:04:47.463Z,19.21
2017-12-02T02:05:56.877Z,19.21
2017-12-02T02:07:05.777Z,19.13
2017-12-02T02:08:14.724Z,19.14
2017-12-02T02:09:23.442Z,19.18
2017-12-02T02:10:32.602Z,19.22
2017-12-02T02:11:41.510Z,19.21
2017-12-02T02:12:50.434Z,19.16
2017-12-02T02:13:59.367Z,19.13
2017-12-02T02:15:08.296Z,19.13
2017-12-02T02:16:17.470Z,19.11
2017-12-02T02:17:27.406Z,19.22
2017-12-02T02:18:36.903Z,19.22
2017-12-02T02:19:46.572Z,19.21
2017-12-02T02:20:55.726Z,19.14
2017-12-02T02:22:04.629Z,19.08
2017-12-02T02:23:13.791Z,19.1
2017-12-02T02:24:22.964Z,19.11
2017-12-02T02:25:32.913Z,19.11
2017-12-02T02:26:41.555Z,19.14
2017-12-02T02:27:50.548Z,19.14
2017-12-02T02:28:59.200Z,19.08
2017-12-02T02:30:08.897Z,19.08
2017-12-02T02:31:18.350Z,19.14
2017-12-02T02:32:27.258Z,19.08
2017-12-02T02:33:36.679Z,19.07
2017-12-02T02:34:45.835Z,19.1
2017-12-02T02:35:55.022Z,19.11
2017-12-02T02:37:04.191Z,19.07
2017-12-02T02:38:13.400Z,19.13
2017-12-02T02:39:22.624Z,19.1
2017-12-02T02:40:31.825Z,19.07
2017-12-02T02:41:41.269Z,19.13
2017-12-02T02:42:50.225Z,19.07
2017-12-02T02:43:59.374Z,19.04
2017-12-02T02:45:08.037Z,19
2017-12-02T02:46:17.199Z,19.08
2017-12-02T02:47:26.101Z,19.1
2017-12-02T02:48:34.749Z,19.11
2017-12-02T02:49:43.914Z,19.1
2017-12-02T02:50:52.846Z,19.11
2017-12-02T02:52:02.809Z,19.02
2017-12-02T02:53:12.211Z,19.13
2017-12-02T02:54:21.882Z,19.1
2017-12-02T02:55:31.561Z,19.06
2017-12-02T02:56:40.982Z,19.08
2017-12-02T02:57:50.131Z,19.1
2017-12-02T02:58:59.289Z,18.99
2017-12-02T03:00:08.448Z,18.99
2017-12-02T03:01:17.608Z,19
2017-12-02T03:02:27.274Z,18.99
2017-12-02T03:03:36.454Z,19.06
2017-12-02T03:04:45.599Z,19.08
2017-12-02T03:05:54.513Z,19.04
2017-12-02T03:07:03.154Z,19.06
2017-12-02T03:08:11.814Z,18.98
2017-12-02T03:09:21.236Z,18.99
2017-12-02T03:10:30.251Z,19.1
2017-12-02T03:11:39.426Z,19.06
2017-12-02T03:12:48.849Z,19.02
2017-12-02T03:13:58.008Z,19
2017-12-02T03:15:06.919Z,18.98
2017-12-02T03:16:16.076Z,19.02
2017-12-02T03:17:24.981Z,19.04
2017-12-02T03:18:34.158Z,19.08
2017-12-02T03:19:42.821Z,18.95
2017-12-02T03:20:52.294Z,19.08
2017-12-02T03:22:01.202Z,19.04
2017-12-02T03:23:09.833Z,19.02
2017-12-02T03:24:19.283Z,18.95
2017-12-02T03:25:28.202Z,19.02
2017-12-02T03:26:37.396Z,19.1
2017-12-02T03:27:46.319Z,19.04
2017-12-02T03:28:55.258Z,18.94
2017-12-02T03:30:04.429Z,19.04
2017-12-02T03:31:13.640Z,18.95
2017-12-02T03:32:23.075Z,18.98
2017-12-02T03:33:31.742Z,18.94
2017-12-02T03:34:40.652Z,19.1
2017-12-02T03:35:50.068Z,19
2017-12-02T03:36:58.985Z,19
2017-12-02T03:38:08.419Z,19.06
2017-12-02T03:39:17.317Z,19
2017-12-02T03:40:25.958Z,19
2017-12-02T03:41:34.897Z,19.04
2017-12-02T03:42:43.558Z,19.04
2017-12-02T03:43:52.469Z,19.02
2017-12-02T03:45:01.910Z,18.98
2017-12-02T03:46:11.122Z,19
2017-12-02T03:47:20.545Z,18.99
2017-12-02T03:48:29.714Z,19.02
2017-12-02T03:49:38.376Z,18.95
2017-12-02T03:50:47.276Z,19.02
2017-12-02T03:51:56.717Z,19
2017-12-02T03:53:05.891Z,19.04
2017-12-02T03:54:14.862Z,18.99
2017-12-02T03:55:23.766Z,19
2017-12-02T03:56:33.443Z,19.04
2017-12-02T03:57:42.082Z,18.95
2017-12-02T03:58:51.245Z,19.02
2017-12-02T04:00:00.704Z,19.08
2017-12-02T04:01:09.610Z,19
2017-12-02T04:02:18.570Z,19.04
2017-12-02T04:03:28.003Z,18.99
2017-12-02T04:04:36.918Z,18.98
2017-12-02T04:05:46.374Z,18.99
2017-12-02T04:06:55.294Z,19.02
2017-12-02T04:08:04.738Z,19.06
2017-12-02T04:09:14.483Z,19.04
2017-12-02T04:10:23.924Z,19
2017-12-02T04:11:32.840Z,18.98
2017-12-02T04:12:41.748Z,19.02
2017-12-02T04:13:50.675Z,18.98
2017-12-02T04:14:59.847Z,18.98
2017-12-02T04:16:09.039Z,19.02
2017-12-02T04:17:17.967Z,19.04
2017-12-02T04:18:27.388Z,19.02
2017-12-02T04:19:36.073Z,19.08
2017-12-02T04:20:44.969Z,19.04
2017-12-02T04:21:53.860Z,18.99
2017-12-02T04:23:03.022Z,18.95
2017-12-02T04:24:12.172Z,18.98
2017-12-02T04:25:21.582Z,18.99
2017-12-02T04:26:31.005Z,18.99
2017-12-02T04:27:39.647Z,19
2017-12-02T04:28:49.081Z,18.99
2017-12-02T04:29:58.232Z,18.98
2017-12-02T04:31:07.640Z,19.04
2017-12-02T04:32:16.821Z,18.99
2017-12-02T04:33:25.490Z,18.95
2017-12-02T04:34:34.953Z,18.98
2017-12-02T04:35:44.165Z,18.98
2017-12-02T04:36:53.106Z,19.07
2017-12-02T04:38:02.349Z,19.07
2017-12-02T04:39:11.777Z,19.04
2017-12-02T04:40:20.706Z,18.98
2017-12-02T04:41:29.618Z,19
2017-12-02T04:42:38.558Z,18.95
2017-12-02T04:43:47.445Z,18.92
2017-12-02T04:44:56.368Z,18.99
2017-12-02T04:46:05.664Z,18.98
2017-12-02T04:47:15.355Z,18.98
2017-12-02T04:48:24.516Z,18.98
2017-12-02T04:49:33.409Z,18.98
2017-12-02T04:50:42.580Z,18.95
2017-12-02T04:51:51.851Z,19.04
2017-12-02T04:53:01.295Z,19
2017-12-02T04:54:10.710Z,18.98
2017-12-02T04:55:19.875Z,18.94
2017-12-02T04:56:29.456Z,18.98
2017-12-02T04:57:38.679Z,18.99
2017-12-02T04:58:47.828Z,18.98
2017-12-02T04:59:57.183Z,18.98
2017-12-02T05:01:06.098Z,18.98
2017-12-02T05:02:14.786Z,18.98
2017-12-02T05:03:23.950Z,18.98
2017-12-02T05:04:33.125Z,18.95
2017-12-02T05:05:42.328Z,19.04
2017-12-02T05:06:51.233Z,18.95
2017-12-02T05:08:00.150Z,18.98
2017-12-02T05:09:09.568Z,18.95
2017-12-02T05:10:18.980Z,18.94
2017-12-02T05:11:27.882Z,18.99
2017-12-02T05:12:36.815Z,18.95
2017-12-02T05:13:45.966Z,18.98
2017-12-02T05:14:55.388Z,18.98
2017-12-02T05:16:04.555Z,18.99
2017-12-02T05:17:13.732Z,18.98
2017-12-02T05:18:22.909Z,18.94
2017-12-02T05:19:32.072Z,18.98
2017-12-02T05:20:40.965Z,18.98
2017-12-02T05:21:49.601Z,18.95
2017-12-02T05:22:58.508Z,18.92
2017-12-02T05:24:07.665Z,18.94
2017-12-02T05:25:16.625Z,18.91
2017-12-02T05:26:25.280Z,18.95
2017-12-02T05:27:34.480Z,18.98
2017-12-02T05:28:44.197Z,18.92
2017-12-02T05:29:52.890Z,18.94
2017-12-02T05:31:01.822Z,18.94
2017-12-02T05:32:11.005Z,18.91
2017-12-02T05:33:20.156Z,18.98
2017-12-02T05:34:29.058Z,18.95
2017-12-02T05:35:38.216Z,18.95
2017-12-02T05:36:46.864Z,18.9
2017-12-02T05:37:56.289Z,18.95
2017-12-02T05:39:05.451Z,18.98
2017-12-02T05:40:14.386Z,18.91
2017-12-02T05:41:23.558Z,18.98
2017-12-02T05:42:32.707Z,18.98
2017-12-02T05:43:41.599Z,18.95
2017-12-02T05:44:50.773Z,18.92
2017-12-02T05:45:59.926Z,18.92
2017-12-02T05:47:09.089Z,18.94
2017-12-02T05:48:18.061Z,18.99
2017-12-02T05:49:27.482Z,18.92
2017-12-02T05:50:36.643Z,18.95
2017-12-02T05:51:45.570Z,18.99
2017-12-02T05:52:54.487Z,18.95
2017-12-02T05:54:03.927Z,18.95
2017-12-02T05:55:13.096Z,18.92
2017-12-02T05:56:22.283Z,18.91
2017-12-02T05:57:30.922Z,19
2017-12-02T05:58:40.081Z,18.92
2017-12-02T05:59:49.242Z,18.91
2017-12-02T06:00:58.461Z,18.91
2017-12-02T06:02:07.360Z,18.92
2017-12-02T06:03:16.010Z,18.98
2017-12-02T06:04:25.494Z,18.92
2017-12-02T06:05:34.717Z,18.9
2017-12-02T06:06:43.619Z,18.94
2017-12-02T06:07:52.795Z,18.88
2017-12-02T06:09:01.712Z,18.91
2017-12-02T06:10:10.641Z,18.98
2017-12-02T06:11:19.523Z,18.88
2017-12-02T06:12:28.725Z,18.94
2017-12-02T06:13:38.450Z,19.02
2017-12-02T06:14:47.108Z,18.92
2017-12-02T06:15:56.033Z,18.94
2017-12-02T06:17:04.949Z,18.94
2017-12-02T06:18:13.578Z,18.94
2017-12-02T06:19:22.533Z,18.92
2017-12-02T06:20:31.948Z,18.99
2017-12-02T06:21:40.882Z,18.95
2017-12-02T06:22:49.528Z,18.94
2017-12-02T06:23:58.462Z,18.91
2017-12-02T06:25:08.143Z,18.84
2017-12-02T06:26:17.658Z,18.94
2017-12-02T06:27:26.306Z,18.88
2017-12-02T06:28:35.733Z,18.9
2017-12-02T06:29:44.903Z,18.81
2017-12-02T06:30:54.158Z,18.99
2017-12-02T06:32:03.322Z,18.94
2017-12-02T06:33:12.785Z,18.91
2017-12-02T06:34:22.200Z,18.82
2017-12-02T06:35:30.846Z,18.94
2017-12-02T06:36:40.020Z,18.9
2017-12-02T06:37:48.963Z,18.99
2017-12-02T06:38:58.122Z,18.91
2017-12-02T06:40:07.616Z,18.99
2017-12-02T06:41:17.303Z,18.94
2017-12-02T06:42:26.743Z,18.99
2017-12-02T06:43:36.218Z,18.8
2017-12-02T06:44:45.114Z,18.84
2017-12-02T06:45:54.566Z,18.91
2017-12-02T06:47:03.483Z,18.9
2017-12-02T06:48:12.400Z,18.92
2017-12-02T06:49:22.122Z,18.9
2017-12-02T06:50:31.283Z,18.8
2017-12-02T06:51:40.241Z,18.91
2017-12-02T06:52:49.403Z,18.92
2017-12-02T06:53:58.543Z,18.95
2017-12-02T06:55:07.458Z,18.9
2017-12-02T06:56:16.395Z,18.92
2017-12-02T06:57:25.297Z,18.98
2017-12-02T06:58:34.493Z,18.9
2017-12-02T06:59:43.395Z,18.92
2017-12-02T07:00:52.323Z,18.92
2017-12-02T07:02:00.984Z,18.9
2017-12-02T07:03:10.145Z,18.88
2017-12-02T07:04:19.297Z,18.82
2017-12-02T07:05:28.746Z,18.84
2017-12-02T07:06:37.437Z,18.82
2017-12-02T07:07:46.901Z,18.82
2017-12-02T07:08:55.567Z,18.95
2017-12-02T07:10:04.496Z,18.81
2017-12-02T07:11:13.969Z,18.92
2017-12-02T07:12:22.896Z,18.78
2017-12-02T07:13:32.084Z,18.9
2017-12-02T07:14:41.287Z,18.94
2017-12-02T07:15:50.438Z,18.87
2017-12-02T07:16:59.078Z,18.85
2017-12-02T07:18:08.526Z,18.88
2017-12-02T07:19:17.425Z,18.81
2017-12-02T07:20:26.846Z,18.85
2017-12-02T07:21:36.029Z,18.9
2017-12-02T07:22:46.240Z,18.81
2017-12-02T07:23:55.768Z,18.91
2017-12-02T07:25:04.418Z,18.84
2017-12-02T07:26:13.644Z,18.82
2017-12-02T07:27:22.546Z,18.85
2017-12-02T07:28:31.714Z,18.81
2017-12-02T07:29:41.140Z,18.84
2017-12-02T07:30:49.814Z,18.88
2017-12-02T07:31:58.715Z,18.8
2017-12-02T07:33:07.394Z,18.92
2017-12-02T07:34:16.574Z,18.87
2017-12-02T07:35:25.485Z,18.88
2017-12-02T07:36:34.388Z,18.81
2017-12-02T07:37:43.539Z,18.88
2017-12-02T07:38:52.240Z,18.87
2017-12-02T07:40:01.459Z,18.85
2017-12-02T07:41:10.930Z,18.85
2017-12-02T07:42:19.825Z,18.85
2017-12-02T07:43:29.258Z,18.87
2017-12-02T07:44:38.496Z,18.87
2017-12-02T07:45:47.444Z,18.87
2017-12-02T07:46:56.348Z,18.87
2017-12-02T07:48:05.249Z,18.87
2017-12-02T07:49:14.218Z,18.8
2017-12-02T07:50:23.128Z,18.87
2017-12-02T07:51:32.049Z,18.9
2017-12-02T07:52:41.244Z,18.85
2017-12-02T07:53:50.157Z,18.84
2017-12-02T07:54:59.381Z,18.87
2017-12-02T07:56:08.094Z,18.84
2017-12-02T07:57:17.264Z,18.87
2017-12-02T07:58:26.155Z,18.85
2017-12-02T07:59:35.330Z,18.8
2017-12-02T08:00:44.316Z,18.8
2017-12-02T08:01:53.211Z,18.94
2017-12-02T08:03:01.865Z,18.91
2017-12-02T08:04:10.780Z,18.98
2017-12-02T08:05:19.951Z,18.98
2017-12-02T08:06:28.871Z,19.08
2017-12-02T08:07:38.291Z,19.11
2017-12-02T08:08:47.704Z,19.21
2017-12-02T08:09:56.621Z,19.25
2017-12-02T08:11:05.513Z,19.28
2017-12-02T08:12:14.708Z,19.36
2017-12-02T08:13:23.619Z,19.43
2017-12-02T08:14:33.052Z,19.43
2017-12-02T08:15:42.502Z,19.51
2017-12-02T08:16:51.168Z,19.55
2017-12-02T08:17:59.995Z,19.61
2017-12-02T08:19:09.149Z,19.69
2017-12-02T08:20:18.103Z,19.71
2017-12-02T08:21:26.944Z,19.81
2017-12-02T08:22:36.669Z,19.86
2017-12-02T08:23:45.563Z,19.84
2017-12-02T08:24:54.832Z,19.95
2017-12-02T08:26:04.174Z,19.96
2017-12-02T08:27:14.343Z,20.05
2017-12-02T08:28:24.079Z,20.11
2017-12-02T08:29:33.010Z,20.2
2017-12-02T08:30:42.924Z,20.23
2017-12-02T08:31:52.100Z,20.2
2017-12-02T08:33:01.283Z,20.29
2017-12-02T08:34:11.099Z,20.28
2017-12-02T08:35:20.124Z,20.38
2017-12-02T08:36:28.795Z,20.41
2017-12-02T08:37:37.970Z,20.47
2017-12-02T08:38:47.387Z,20.43
2017-12-02T08:39:56.322Z,20.5
2017-12-02T08:41:05.219Z,20.52
2017-12-02T08:42:14.402Z,20.58
2017-12-02T08:43:23.821Z,20.59
2017-12-02T08:44:32.750Z,20.7
2017-12-02T08:45:41.918Z,20.73
2017-12-02T08:46:50.831Z,20.72
2017-12-02T08:48:00.036Z,20.64
2017-12-02T08:49:09.983Z,20.84
2017-12-02T08:50:19.413Z,20.84
2017-12-02T08:51:28.307Z,20.84
2017-12-02T08:52:37.499Z,20.8
2017-12-02T08:53:46.671Z,20.88
2017-12-02T08:54:55.379Z,20.88
2017-12-02T08:56:04.807Z,20.95
2017-12-02T08:57:13.716Z,20.95
2017-12-02T08:58:23.183Z,20.98
2017-12-02T08:59:32.094Z,20.99
2017-12-02T09:00:41.772Z,21.04
2017-12-02T09:01:50.931Z,21.12
2017-12-02T09:02:59.892Z,21.1
2017-12-02T09:04:09.057Z,21.06
2017-12-02T09:05:17.955Z,21.07
2017-12-02T09:06:26.855Z,21.04
2017-12-02T09:07:35.500Z,21.03
2017-12-02T09:08:44.702Z,21.04
2017-12-02T09:09:53.600Z,21.06
2017-12-02T09:11:03.040Z,21.14
2017-12-02T09:12:11.964Z,20.99
2017-12-02T09:13:20.871Z,21.03
2017-12-02T09:14:30.151Z,21.01
2017-12-02T09:15:39.343Z,21.07
2017-12-02T09:16:48.153Z,21.03
2017-12-02T09:17:57.072Z,21.07
2017-12-02T09:19:06.246Z,20.97
2017-12-02T09:20:15.134Z,21.01
2017-12-02T09:21:24.305Z,20.98
2017-12-02T09:22:33.247Z,20.97
2017-12-02T09:23:41.936Z,20.95
2017-12-02T09:24:50.848Z,20.95
2017-12-02T09:26:00.513Z,20.97
2017-12-02T09:27:09.244Z,20.95
2017-12-02T09:28:18.418Z,20.87
2017-12-02T09:29:27.307Z,20.94
2017-12-02T09:30:36.510Z,20.84
2017-12-02T09:31:45.733Z,20.82
2017-12-02T09:32:54.676Z,20.8
2017-12-02T09:34:03.348Z,20.85
2017-12-02T09:35:14.708Z,20.84
2017-12-02T09:36:25.040Z,20.76
2017-12-02T09:37:34.756Z,20.77
2017-12-02T09:38:44.206Z,20.7
2017-12-02T09:39:53.352Z,20.82
2017-12-02T09:41:02.309Z,20.67
2017-12-02T09:42:10.988Z,20.66
2017-12-02T09:43:19.912Z,20.7
2017-12-02T09:44:28.586Z,20.69
2017-12-02T09:45:37.230Z,20.69
2017-12-02T09:46:46.196Z,20.72
2017-12-02T09:47:55.443Z,20.67
2017-12-02T09:49:04.904Z,20.67
2017-12-02T09:50:13.795Z,20.69
2017-12-02T09:51:22.949Z,20.67
2017-12-02T09:52:32.390Z,20.64
2017-12-02T09:53:41.289Z,20.69
2017-12-02T09:54:49.968Z,20.67
2017-12-02T09:55:59.647Z,20.67
2017-12-02T09:57:08.393Z,20.67
2017-12-02T09:58:17.307Z,20.7
2017-12-02T09:59:26.731Z,20.69
2017-12-02T10:00:35.907Z,20.7
2017-12-02T10:01:45.058Z,20.67
2017-12-02T10:02:53.714Z,20.74
2017-12-02T10:04:02.891Z,20.7
2017-12-02T10:05:12.067Z,20.67
2017-12-02T10:06:21.471Z,20.66
2017-12-02T10:07:30.629Z,20.69
2017-12-02T10:08:40.060Z,20.77
2017-12-02T10:09:49.345Z,20.82
2017-12-02T10:10:57.992Z,20.8
2017-12-02T10:12:06.654Z,20.8
2017-12-02T10:13:15.823Z,20.87
2017-12-02T10:14:24.738Z,20.82
2017-12-02T10:15:33.903Z,20.82
2017-12-02T10:16:42.810Z,20.92
2017-12-02T10:17:51.718Z,20.91
2017-12-02T10:19:00.892Z,20.94
2017-12-02T10:20:09.789Z,20.94
2017-12-02T10:21:19.207Z,20.92
2017-12-02T10:22:28.357Z,20.91
2017-12-02T10:23:37.264Z,20.85
2017-12-02T10:24:46.434Z,20.89
2017-12-02T10:25:55.092Z,20.82
2017-12-02T10:27:03.986Z,20.82
2017-12-02T10:28:13.285Z,20.84
2017-12-02T10:29:22.748Z,20.85
2017-12-02T10:30:32.190Z,20.82
2017-12-02T10:31:41.167Z,20.88
2017-12-02T10:32:51.872Z,20.73
2017-12-02T10:34:02.540Z,20.8
2017-12-02T10:35:11.469Z,20.82
2017-12-02T10:36:20.396Z,20.74
2017-12-02T10:37:29.310Z,20.73
2017-12-02T10:38:38.723Z,20.82
2017-12-02T10:39:47.894Z,20.76
2017-12-02T10:40:57.079Z,20.7
2017-12-02T10:42:06.239Z,20.67
2017-12-02T10:43:15.129Z,20.7
2017-12-02T10:44:24.823Z,20.7
2017-12-02T10:45:34.001Z,20.66
2017-12-02T10:46:42.918Z,20.7
2017-12-02T10:47:51.553Z,20.69
2017-12-02T10:49:00.707Z,20.66
2017-12-02T10:50:09.620Z,20.62
2017-12-02T10:51:18.259Z,20.62
2017-12-02T10:52:27.164Z,20.64
2017-12-02T10:53:36.322Z,20.51
2017-12-02T10:54:45.478Z,20.42
2017-12-02T10:55:54.694Z,20.58
2017-12-02T10:57:03.845Z,20.52
2017-12-02T10:58:12.744Z,20.5
2017-12-02T10:59:22.216Z,20.5
2017-12-02T11:00:31.117Z,20.43
2017-12-02T11:01:40.085Z,20.43
2017-12-02T11:03:01.456Z,20.42
2017-12-02T11:04:10.113Z,20.38
2017-12-02T11:05:18.764Z,20.38
2017-12-02T11:06:27.987Z,20.33
2017-12-02T11:07:36.633Z,20.33
2017-12-02T11:08:46.080Z,20.28
2017-12-02T11:09:54.975Z,20.33
2017-12-02T11:11:03.872Z,20.24
2017-12-02T11:12:12.787Z,20.31
2017-12-02T11:13:21.696Z,20.16
2017-12-02T11:14:30.923Z,20.16
2017-12-02T11:15:40.141Z,20.23
2017-12-02T11:16:49.834Z,20.17
2017-12-02T11:17:58.492Z,20.11
2017-12-02T11:19:07.645Z,20.2
2017-12-02T11:20:16.553Z,20.2
2017-12-02T11:21:25.456Z,20.13
2017-12-02T11:22:34.133Z,20.1
2017-12-02T11:23:43.031Z,20.17
2017-12-02T11:24:51.669Z,20.13
2017-12-02T11:26:01.109Z,20.08
2017-12-02T11:27:11.086Z,20.11
2017-12-02T11:28:20.537Z,20.16
2017-12-02T11:29:29.979Z,20.03
2017-12-02T11:30:39.180Z,20.02
2017-12-02T11:31:48.088Z,19.98
2017-12-02T11:32:57.268Z,20.02
2017-12-02T11:34:06.695Z,19.98
2017-12-02T11:35:15.604Z,20.02
2017-12-02T11:36:24.778Z,19.98
2017-12-02T11:37:33.982Z,20.03
2017-12-02T11:38:42.632Z,19.94
2017-12-02T11:39:51.799Z,20.02
2017-12-02T11:41:01.100Z,19.91
2017-12-02T11:42:09.954Z,19.91
2017-12-02T11:43:19.387Z,19.94
2017-12-02T11:44:28.810Z,19.81
2017-12-02T11:45:37.705Z,19.91
2017-12-02T11:46:46.864Z,19.84
2017-12-02T11:47:56.033Z,19.99
2017-12-02T11:49:05.462Z,19.84
2017-12-02T11:50:14.117Z,19.81
2017-12-02T11:51:23.028Z,19.84
2017-12-02T11:52:31.936Z,19.87
2017-12-02T11:53:41.101Z,19.84
2017-12-02T11:54:49.767Z,19.84
2017-12-02T11:55:58.412Z,19.78
2017-12-02T11:57:07.083Z,19.8
2017-12-02T11:58:15.994Z,19.84
2017-12-02T11:59:24.889Z,19.77
2017-12-02T12:00:33.547Z,19.71
2017-12-02T12:01:42.182Z,19.76
2017-12-02T12:02:51.104Z,19.78
2017-12-02T12:04:00.261Z,19.78
2017-12-02T12:05:09.179Z,19.76
2017-12-02T12:06:18.073Z,19.76
2017-12-02T12:07:26.985Z,19.74
2017-12-02T12:08:35.911Z,19.71
2017-12-02T12:09:44.837Z,19.73
2017-12-02T12:10:54.008Z,19.76
2017-12-02T12:12:03.181Z,19.8
2017-12-02T12:13:12.096Z,19.76
2017-12-02T12:14:21.029Z,19.77
2017-12-02T12:15:30.702Z,19.69
2017-12-02T12:16:39.673Z,19.81
2017-12-02T12:17:48.848Z,19.74
2017-12-02T12:18:58.026Z,19.76
2017-12-02T12:20:07.183Z,19.74
2017-12-02T12:21:16.352Z,19.76
2017-12-02T12:22:25.522Z,19.74
2017-12-02T12:23:34.443Z,19.74
2017-12-02T12:24:43.863Z,19.73
2017-12-02T12:25:53.038Z,19.69
2017-12-02T12:27:02.205Z,19.69
2017-12-02T12:28:11.147Z,19.71
2017-12-02T12:29:20.313Z,19.73
2017-12-02T12:30:30.145Z,19.66
2017-12-02T12:31:39.080Z,19.66
2017-12-02T12:32:47.727Z,19.62
2017-12-02T12:33:57.152Z,19.61
2017-12-02T12:35:06.356Z,19.66
2017-12-02T12:36:15.022Z,19.62
2017-12-02T12:37:23.917Z,19.66
2017-12-02T12:38:32.850Z,19.65
2017-12-02T12:39:42.030Z,19.68
2017-12-02T12:40:51.486Z,19.66
2017-12-02T12:42:00.416Z,19.68
2017-12-02T12:43:09.592Z,19.68
2017-12-02T12:44:18.501Z,19.68
2017-12-02T12:45:27.495Z,19.58
2017-12-02T12:46:36.728Z,19.63
2017-12-02T12:47:45.890Z,19.63
2017-12-02T12:48:54.804Z,19.66
2017-12-02T12:50:03.723Z,19.58
2017-12-02T12:51:12.894Z,19.68
2017-12-02T12:52:22.073Z,19.68
2017-12-02T12:53:30.740Z,19.69
2017-12-02T12:54:39.383Z,19.56
2017-12-02T12:55:48.279Z,19.66
2017-12-02T12:56:57.185Z,19.68
2017-12-02T12:58:06.368Z,19.61
2017-12-02T12:59:16.022Z,19.65
2017-12-02T13:00:24.659Z,19.68
2017-12-02T13:01:33.566Z,19.73
2017-12-02T13:02:42.740Z,19.65
2017-12-02T13:03:51.643Z,19.69
2017-12-02T13:05:00.543Z,19.61
2017-12-02T13:06:09.966Z,19.69
2017-12-02T13:07:18.861Z,19.65
2017-12-02T13:08:28.048Z,19.71
2017-12-02T13:09:37.474Z,19.65
2017-12-02T13:10:46.134Z,19.65
2017-12-02T13:11:55.323Z,19.65
2017-12-02T13:13:04.556Z,19.69
2017-12-02T13:14:14.250Z,19.69
2017-12-02T13:15:23.165Z,19.65
2017-12-02T13:16:32.133Z,19.65
2017-12-02T13:17:41.558Z,19.62
2017-12-02T13:18:51.272Z,19.65
2017-12-02T13:20:00.442Z,19.61
2017-12-02T13:21:09.888Z,19.59
2017-12-02T13:22:19.323Z,19.66
2017-12-02T13:23:28.248Z,19.73
2017-12-02T13:24:37.201Z,19.65
2017-12-02T13:25:46.701Z,19.68
2017-12-02T13:26:55.443Z,19.68
2017-12-02T13:28:04.615Z,19.76
2017-12-02T13:29:13.822Z,19.71
2017-12-02T13:30:22.737Z,19.76
2017-12-02T13:31:31.905Z,19.65
2017-12-02T13:32:40.919Z,19.68
2017-12-02T13:33:50.087Z,19.69
2017-12-02T13:34:59.554Z,19.58
2017-12-02T13:36:08.754Z,19.63
2017-12-02T13:37:17.941Z,19.69
2017-12-02T13:38:27.387Z,19.55
2017-12-02T13:39:36.303Z,19.68
2017-12-02T13:40:45.758Z,19.68
2017-12-02T13:41:54.931Z,19.58
2017-12-02T13:43:03.849Z,19.62
2017-12-02T13:44:13.023Z,19.58
2017-12-02T13:45:22.733Z,19.66
2017-12-02T13:46:31.908Z,19.63
2017-12-02T13:47:40.816Z,19.63
2017-12-02T13:48:49.982Z,19.59
2017-12-02T13:49:58.878Z,19.68
2017-12-02T13:51:08.101Z,19.56
2017-12-02T13:52:17.266Z,19.59
2017-12-02T13:53:26.935Z,19.55
2017-12-02T13:54:36.120Z,19.62
2017-12-02T13:55:45.278Z,19.59
2017-12-02T13:56:54.457Z,19.58
2017-12-02T13:58:03.357Z,19.59
2017-12-02T13:59:12.320Z,19.63
2017-12-02T14:00:21.302Z,19.55
2017-12-02T14:01:30.738Z,19.59
2017-12-02T14:02:39.902Z,19.56
2017-12-02T14:03:49.077Z,19.56
2017-12-02T14:04:57.739Z,19.56
2017-12-02T14:06:07.178Z,19.61
2017-12-02T14:07:16.330Z,19.58
2017-12-02T14:08:25.775Z,19.51
2017-12-02T14:09:35.212Z,19.58
2017-12-02T14:10:44.152Z,19.61
2017-12-02T14:11:52.792Z,19.59
2017-12-02T14:13:01.959Z,19.56
2017-12-02T14:14:10.880Z,19.59
2017-12-02T14:15:19.793Z,19.55
2017-12-02T14:16:28.698Z,19.55
2017-12-02T14:17:37.869Z,19.55
2017-12-02T14:18:47.304Z,19.55
2017-12-02T14:19:56.499Z,19.55
2017-12-02T14:21:05.718Z,19.55
2017-12-02T14:22:14.645Z,19.54
2017-12-02T14:23:24.123Z,19.55
2017-12-02T14:24:33.047Z,19.56
2017-12-02T14:25:42.474Z,19.5
2017-12-02T14:26:51.117Z,19.51
2017-12-02T14:28:00.807Z,19.54
2017-12-02T14:29:09.712Z,19.43
2017-12-02T14:30:18.618Z,19.51
2017-12-02T14:31:27.788Z,19.54
2017-12-02T14:32:37.211Z,19.43
2017-12-02T14:33:46.388Z,19.5
2017-12-02T14:34:55.810Z,19.54
2017-12-02T14:36:04.730Z,19.51
2017-12-02T14:37:13.633Z,19.46
2017-12-02T14:38:22.541Z,19.48
2017-12-02T14:39:31.457Z,19.54
2017-12-02T14:40:40.381Z,19.5
2017-12-02T14:41:49.046Z,19.5
2017-12-02T14:42:58.213Z,19.51
2017-12-02T14:44:06.897Z,19.44
2017-12-02T14:45:16.342Z,19.5
2017-12-02T14:46:25.554Z,19.46
2017-12-02T14:47:34.732Z,19.51
2017-12-02T14:48:43.914Z,19.48
2017-12-02T14:49:53.092Z,19.44
2017-12-02T14:51:02.020Z,19.51
2017-12-02T14:52:11.481Z,19.43
2017-12-02T14:53:20.157Z,19.5
2017-12-02T14:54:29.062Z,19.51